Αρχική σελίδα
METAR-TAF:

METAR-TAF

Αεροδρόμια :

Burwash, Γιουκόν, Καναδάς

γεωγραφικό πλάτος: 61-22N, γεωγραφικό μήκος: 139-02W, υψόμετρο: 807 μ

Παρών καιρός

Η αναφορά έγινε 43 λεπτά πριν, στις 01:00 UTC
Άνεμος 11 kt από Α/NA
Θερμοκρασία 4°C
Υγρασία 17%
Πίεση 1016 hPa
Ορατότητα: 14.5 χλμ
Καθαρός ουρανός

METAR: CYDB 260100Z AUTO 11011KT 9SM CLR 04/M19 A2999 RMK SLP210

Χρόνος: 18:43 (01:43 UTC)

Πρόγνωση Καιρού

Η αναφορά έγινε 2 ώρες και 5 λεπτά πριν, στις 23:38 UTC
Η πρόγνωση ισχύει από τις 26 στις 00 UTC έως τις 26 στις 12 UTC
Άνεμος 12 kt από Α/NA με ριπές μέχρι 22 kt
Ορατότητα: 10 χλμ
Λίγα νέφη σε ύψος 6000 πόδια
Διάσπαρτα νέφη σε ύψος 20000 πόδια
Καθιστάμενος
από 26 στις 01 UTC έως τις 26 στις 03 UTC
Άνεμος 5 kt από Α/NA

TAF: CYDB 252338Z 2600/2612 11012G22KT P6SM FEW060 SCT200 BECMG 2601/2603 12005KT RMK FCST BASED ON AUTO OBS. NXT FCST BY 260600Z

Μετεωρολογικές αναφορές και προγνώσεις για περισσότερα από 4000 αεροδρόμια (δελτία METAR και TAF).

Οι διαθέσιμοι σταθμοί απεικονίζονται στο χάρτη με κίτρινες και κόκκινες κουκκίδες.

Μετακινήστε το ποντίκι πάνω από τις κουκκίδες για να δείτε το όνομα του σταθμού.

Στη συνέχεια, κάντε κλικ για να δείτε τις μετεωρολογικές αναφορές και τις προγνώσεις καιρού.

Για να αλλάξετε το χάρτη: κάντε κλικ στα πράσινα κουμπιά με τον μαύρο σταυρό για να ζουμάρετε, στο πράσινο κουμπί με την παύλα για να αφαιρέσετε το ζουμ ή στα πράσινα βέλη για να αντιπαραβάλλετε χάρτες.


METAR-TAF: